KTCS/TCS METAR and TAF weather

Enter ICAO airport designator
Station Type Date Time Source
KTCS METAR 2019/12/07 14:53 UTC NOAA

KTCS 071453Z AUTO 00000KT 10SM CLR 05/02 A3030 RMK AO2 SLP239 T00500017 53008


Station Type Date Time Source
KTCS Decoded METAR 2019/12/07 14:53 UTC NOAA

TRUTH OR CONSEQUENCES MUNI, NM, United States (KTCS) 33-14N 107-16W 1469M
Dec 07, 2019 - 09:53 AM EST / 2019.12.07 1453 UTC
Wind: Calm:0
Visibility: 10 mile(s):0
Sky conditions: clear
Temperature: 41.0 F (5.0 C)
Dew Point: 35.1 F (1.7 C)
Relative Humidity: 79%
Pressure (altimeter): 30.3 in. Hg (1026 hPa)
Pressure tendency: 0.02 inches (0.8 hPa) higher than three hours ago
ob: KTCS 071453Z AUTO 00000KT 10SM CLR 05/02 A3030 RMK AO2 SLP239 T00500017 53008
cycle: 15

Station Type Date Time Source
KTCS TAF 2019/12/07 12:34 UTC NOAA

TAF KTCS 071131Z 0712/0812 VRB04KT P6SM BKN250
FM080200 27008KT P6SM BKN250
FM081000 30009KT P6SM BKN150

Example: see airport list